sensor_id;sensor_type;location;lat;lon;timestamp;pressure;altitude;pressure_sealevel;temperature;humidity
6528;BME280;64597;42.664;23.256;2023-02-03T00:00:37;94816.72;;;4.02;58.56
6528;BME280;64597;42.664;23.256;2023-02-03T00:03:03;94815.09;;;4.01;58.44
6528;BME280;64597;42.664;23.256;2023-02-03T00:05:29;94815.03;;;3.95;58.13
6528;BME280;64597;42.664;23.256;2023-02-03T00:07:58;94811.50;;;3.81;59.53
6528;BME280;64597;42.664;23.256;2023-02-03T00:10:23;94809.03;;;3.73;59.75
6528;BME280;64597;42.664;23.256;2023-02-03T00:12:50;94781.97;;;3.53;59.80
6528;BME280;64597;42.664;23.256;2023-02-03T00:15:21;94819.19;;;3.68;60.48
6528;BME280;64597;42.664;23.256;2023-02-03T00:17:51;94798.28;;;3.62;60.66
6528;BME280;64597;42.664;23.256;2023-02-03T00:20:16;94808.47;;;3.78;61.36
6528;BME280;64597;42.664;23.256;2023-02-03T00:22:42;94756.50;;;3.34;61.36
6528;BME280;64597;42.664;23.256;2023-02-03T00:25:07;94810.75;;;3.66;61.96
6528;BME280;64597;42.664;23.256;2023-02-03T00:27:33;94785.94;;;3.49;62.04
6528;BME280;64597;42.664;23.256;2023-02-03T00:29:58;94814.41;;;3.51;61.63
6528;BME280;64597;42.664;23.256;2023-02-03T00:32:24;94816.34;;;3.63;61.49
6528;BME280;64597;42.664;23.256;2023-02-03T00:34:49;94825.13;;;3.62;61.56
6528;BME280;64597;42.664;23.256;2023-02-03T00:37:15;94787.66;;;3.42;61.48
6528;BME280;64597;42.664;23.256;2023-02-03T00:39:40;94804.41;;;3.54;61.62
6528;BME280;64597;42.664;23.256;2023-02-03T00:42:05;94724.66;;;2.96;62.22
6528;BME280;64597;42.664;23.256;2023-02-03T00:44:31;94843.88;;;3.72;61.67
6528;BME280;64597;42.664;23.256;2023-02-03T00:46:57;94832.59;;;3.65;61.51
6528;BME280;64597;42.664;23.256;2023-02-03T00:49:22;94822.41;;;3.70;61.57
6528;BME280;64597;42.664;23.256;2023-02-03T00:51:48;94824.66;;;3.73;60.80
6528;BME280;64597;42.664;23.256;2023-02-03T00:54:14;94837.63;;;3.67;61.04
6528;BME280;64597;42.664;23.256;2023-02-03T00:56:40;94833.84;;;3.69;60.37
6528;BME280;64597;42.664;23.256;2023-02-03T00:59:05;94826.84;;;3.70;60.35
6528;BME280;64597;42.664;23.256;2023-02-03T01:01:32;94829.25;;;3.71;60.59
6528;BME280;64597;42.664;23.256;2023-02-03T01:03:57;94793.72;;;3.28;60.14
6528;BME280;64597;42.664;23.256;2023-02-03T01:06:24;94836.63;;;3.47;60.26
6528;BME280;64597;42.664;23.256;2023-02-03T01:08:50;94862.38;;;3.56;60.80
6528;BME280;64597;42.664;23.256;2023-02-03T01:11:21;94794.72;;;3.27;60.59
6528;BME280;64597;42.664;23.256;2023-02-03T01:13:47;94873.69;;;3.63;60.79
6528;BME280;64597;42.664;23.256;2023-02-03T01:16:15;94864.88;;;3.64;61.00
6528;BME280;64597;42.664;23.256;2023-02-03T01:18:42;94851.22;;;3.62;60.96
6528;BME280;64597;42.664;23.256;2023-02-03T01:21:13;94854.81;;;3.61;60.81
6528;BME280;64597;42.664;23.256;2023-02-03T01:23:38;94856.19;;;3.57;60.85
6528;BME280;64597;42.664;23.256;2023-02-03T01:26:06;94862.28;;;3.50;61.27
6528;BME280;64597;42.664;23.256;2023-02-03T01:28:31;94803.66;;;3.03;61.46
6528;BME280;64597;42.664;23.256;2023-02-03T01:30:57;94811.78;;;3.15;60.84
6528;BME280;64597;42.664;23.256;2023-02-03T01:33:32;94819.53;;;3.23;60.35
6528;BME280;64597;42.664;23.256;2023-02-03T01:35:59;94858.75;;;3.36;60.61
6528;BME280;64597;42.664;23.256;2023-02-03T01:38:25;94840.72;;;3.20;61.41
6528;BME280;64597;42.664;23.256;2023-02-03T01:40:50;94834.25;;;3.16;61.26
6528;BME280;64597;42.664;23.256;2023-02-03T01:43:36;94848.06;;;3.31;61.44
6528;BME280;64597;42.664;23.256;2023-02-03T01:48:43;94844.25;;;3.12;61.66
6528;BME280;64597;42.664;23.256;2023-02-03T01:51:09;94874.13;;;3.31;61.25
6528;BME280;64597;42.664;23.256;2023-02-03T01:53:35;94873.41;;;3.37;60.99
6528;BME280;64597;42.664;23.256;2023-02-03T01:56:02;94863.53;;;3.32;60.77
6528;BME280;64597;42.664;23.256;2023-02-03T01:58:31;94869.44;;;3.41;61.26
6528;BME280;64597;42.664;23.256;2023-02-03T02:00:59;94763.94;;;2.66;61.12
6528;BME280;64597;42.664;23.256;2023-02-03T02:03:38;94831.84;;;3.14;60.38
6528;BME280;64597;42.664;23.256;2023-02-03T02:06:11;94854.53;;;3.35;60.50
6528;BME280;64597;42.664;23.256;2023-02-03T02:08:37;94870.31;;;3.48;59.83
6528;BME280;64597;42.664;23.256;2023-02-03T02:11:05;94871.03;;;3.42;60.18
6528;BME280;64597;42.664;23.256;2023-02-03T02:13:33;94872.50;;;3.30;60.56
6528;BME280;64597;42.664;23.256;2023-02-03T02:16:11;94879.78;;;3.34;60.80
6528;BME280;64597;42.664;23.256;2023-02-03T02:26:56;94891.75;;;3.14;61.06
6528;BME280;64597;42.664;23.256;2023-02-03T02:32:29;94907.09;;;3.24;60.92
6528;BME280;64597;42.664;23.256;2023-02-03T02:37:42;94868.56;;;3.05;59.92
6528;BME280;64597;42.664;23.256;2023-02-03T02:45:38;94875.22;;;2.93;60.14
6528;BME280;64597;42.664;23.256;2023-02-03T02:48:14;94870.47;;;2.96;60.35
6528;BME280;64597;42.664;23.256;2023-02-03T02:50:43;94838.69;;;2.72;60.50
6528;BME280;64597;42.664;23.256;2023-02-03T02:53:12;94888.22;;;2.78;60.72
6528;BME280;64597;42.664;23.256;2023-02-03T02:55:39;94902.34;;;2.84;61.00
6528;BME280;64597;42.664;23.256;2023-02-03T02:58:08;94901.63;;;2.90;60.27
6528;BME280;64597;42.664;23.256;2023-02-03T03:00:35;94893.19;;;2.88;60.68
6528;BME280;64597;42.664;23.256;2023-02-03T03:03:14;94913.66;;;2.91;60.27
6528;BME280;64597;42.664;23.256;2023-02-03T03:05:43;94907.38;;;2.85;59.79
6528;BME280;64597;42.664;23.256;2023-02-03T03:08:12;94887.53;;;2.70;59.54
6528;BME280;64597;42.664;23.256;2023-02-03T03:10:39;94914.38;;;2.85;59.07
6528;BME280;64597;42.664;23.256;2023-02-03T03:13:08;94911.94;;;2.83;58.73
6528;BME280;64597;42.664;23.256;2023-02-03T03:15:38;94919.91;;;2.67;59.37
6528;BME280;64597;42.664;23.256;2023-02-03T03:18:35;94918.38;;;2.73;58.95
6528;BME280;64597;42.664;23.256;2023-02-03T03:21:03;94917.50;;;2.66;59.24
6528;BME280;64597;42.664;23.256;2023-02-03T03:23:38;94931.94;;;2.83;59.08
6528;BME280;64597;42.664;23.256;2023-02-03T03:26:40;94937.16;;;2.83;59.06
6528;BME280;64597;42.664;23.256;2023-02-03T03:31:39;94941.91;;;2.79;59.18
6528;BME280;64597;42.664;23.256;2023-02-03T03:34:07;94907.25;;;2.64;58.12
6528;BME280;64597;42.664;23.256;2023-02-03T03:36:51;94952.25;;;2.87;58.76
6528;BME280;64597;42.664;23.256;2023-02-03T03:39:27;94946.59;;;2.84;58.99
6528;BME280;64597;42.664;23.256;2023-02-03T03:41:59;94944.88;;;2.91;58.55
6528;BME280;64597;42.664;23.256;2023-02-03T03:44:32;94922.81;;;2.87;57.78
6528;BME280;64597;42.664;23.256;2023-02-03T03:47:11;94921.00;;;2.73;58.65
6528;BME280;64597;42.664;23.256;2023-02-03T03:49:39;94936.09;;;2.77;57.81
6528;BME280;64597;42.664;23.256;2023-02-03T03:52:07;94925.03;;;2.75;58.77
6528;BME280;64597;42.664;23.256;2023-02-03T03:54:36;94927.53;;;2.69;58.99
6528;BME280;64597;42.664;23.256;2023-02-03T03:57:12;94933.47;;;2.77;58.95
6528;BME280;64597;42.664;23.256;2023-02-03T03:59:43;94935.91;;;2.79;59.07
6528;BME280;64597;42.664;23.256;2023-02-03T04:02:11;94929.00;;;2.71;59.10
6528;BME280;64597;42.664;23.256;2023-02-03T04:04:38;94936.34;;;2.68;59.37
6528;BME280;64597;42.664;23.256;2023-02-03T04:07:05;94924.59;;;2.72;58.92
6528;BME280;64597;42.664;23.256;2023-02-03T04:09:30;94906.69;;;2.54;59.17
6528;BME280;64597;42.664;23.256;2023-02-03T04:11:56;94941.91;;;2.79;59.14
6528;BME280;64597;42.664;23.256;2023-02-03T04:14:29;94940.75;;;2.82;58.92
6528;BME280;64597;42.664;23.256;2023-02-03T04:16:56;94950.19;;;2.83;58.21
6528;BME280;64597;42.664;23.256;2023-02-03T04:19:22;94936.97;;;2.70;58.93
6528;BME280;64597;42.664;23.256;2023-02-03T04:21:47;94910.53;;;2.43;59.27
6528;BME280;64597;42.664;23.256;2023-02-03T04:24:13;94942.91;;;2.64;59.76
6528;BME280;64597;42.664;23.256;2023-02-03T04:26:38;94902.34;;;2.32;59.63
6528;BME280;64597;42.664;23.256;2023-02-03T04:29:04;94937.56;;;2.57;59.33
6528;BME280;64597;42.664;23.256;2023-02-03T04:31:29;94915.53;;;2.30;59.30
6528;BME280;64597;42.664;23.256;2023-02-03T04:33:55;94907.63;;;2.24;59.83
6528;BME280;64597;42.664;23.256;2023-02-03T04:36:20;94953.19;;;2.57;59.62
6528;BME280;64597;42.664;23.256;2023-02-03T04:38:47;94939.13;;;2.43;59.57
6528;BME280;64597;42.664;23.256;2023-02-03T04:41:13;94966.44;;;2.47;59.57
6528;BME280;64597;42.664;23.256;2023-02-03T04:43:39;94973.72;;;2.52;59.51
6528;BME280;64597;42.664;23.256;2023-02-03T04:46:04;94971.94;;;2.53;59.57
6528;BME280;64597;42.664;23.256;2023-02-03T04:48:30;94968.00;;;2.34;59.29
6528;BME280;64597;42.664;23.256;2023-02-03T04:51:03;94976.19;;;2.45;59.54
6528;BME280;64597;42.664;23.256;2023-02-03T04:53:29;94976.84;;;2.47;59.65
6528;BME280;64597;42.664;23.256;2023-02-03T04:55:55;94996.22;;;2.45;60.01
6528;BME280;64597;42.664;23.256;2023-02-03T04:58:20;94978.34;;;2.42;59.58
6528;BME280;64597;42.664;23.256;2023-02-03T05:00:46;94955.94;;;2.18;59.61
6528;BME280;64597;42.664;23.256;2023-02-03T05:03:11;94994.59;;;2.44;59.57
6528;BME280;64597;42.664;23.256;2023-02-03T05:05:37;94996.50;;;2.50;58.93
6528;BME280;64597;42.664;23.256;2023-02-03T05:08:02;95004.81;;;2.45;59.54
6528;BME280;64597;42.664;23.256;2023-02-03T05:10:28;94966.84;;;2.36;59.56
6528;BME280;64597;42.664;23.256;2023-02-03T05:12:53;95005.25;;;2.34;60.03
6528;BME280;64597;42.664;23.256;2023-02-03T05:15:19;95021.75;;;2.41;60.03
6528;BME280;64597;42.664;23.256;2023-02-03T05:17:44;94997.75;;;2.31;59.68
6528;BME280;64597;42.664;23.256;2023-02-03T05:20:10;95015.16;;;2.53;59.82
6528;BME280;64597;42.664;23.256;2023-02-03T05:22:36;95008.53;;;2.51;59.62
6528;BME280;64597;42.664;23.256;2023-02-03T05:25:02;95028.81;;;2.56;59.76
6528;BME280;64597;42.664;23.256;2023-02-03T05:27:28;95022.69;;;2.48;60.18
6528;BME280;64597;42.664;23.256;2023-02-03T05:29:53;95038.75;;;2.52;59.90
6528;BME280;64597;42.664;23.256;2023-02-03T05:32:19;95040.84;;;2.57;60.05
6528;BME280;64597;42.664;23.256;2023-02-03T05:34:45;95048.03;;;2.55;59.63
6528;BME280;64597;42.664;23.256;2023-02-03T05:37:10;95060.09;;;2.47;60.15
6528;BME280;64597;42.664;23.256;2023-02-03T05:39:36;95049.81;;;2.54;59.95
6528;BME280;64597;42.664;23.256;2023-02-03T05:42:01;95049.19;;;2.52;59.39
6528;BME280;64597;42.664;23.256;2023-02-03T05:44:28;95047.09;;;2.47;59.47
6528;BME280;64597;42.664;23.256;2023-02-03T05:46:55;95050.00;;;2.53;59.97
6528;BME280;64597;42.664;23.256;2023-02-03T05:49:21;95027.56;;;2.29;60.23
6528;BME280;64597;42.664;23.256;2023-02-03T05:51:53;95049.75;;;2.39;59.98
6528;BME280;64597;42.664;23.256;2023-02-03T05:54:20;95053.53;;;2.37;60.20
6528;BME280;64597;42.664;23.256;2023-02-03T05:56:45;95057.84;;;2.44;59.73
6528;BME280;64597;42.664;23.256;2023-02-03T05:59:11;95037.31;;;2.27;59.84
6528;BME280;64597;42.664;23.256;2023-02-03T06:01:37;95037.16;;;2.28;59.89
6528;BME280;64597;42.664;23.256;2023-02-03T06:04:03;95046.41;;;2.31;59.98
6528;BME280;64597;42.664;23.256;2023-02-03T06:06:29;95065.03;;;2.42;59.65
6528;BME280;64597;42.664;23.256;2023-02-03T06:09:07;95047.03;;;2.33;59.40
6528;BME280;64597;42.664;23.256;2023-02-03T06:11:34;95036.56;;;2.18;59.08
6528;BME280;64597;42.664;23.256;2023-02-03T06:14:00;95067.13;;;2.47;59.35
6528;BME280;64597;42.664;23.256;2023-02-03T06:16:27;95075.25;;;2.44;59.25
6528;BME280;64597;42.664;23.256;2023-02-03T06:18:54;95082.81;;;2.53;60.08
6528;BME280;64597;42.664;23.256;2023-02-03T06:21:22;95075.38;;;2.50;59.04
6528;BME280;64597;42.664;23.256;2023-02-03T06:23:48;95079.19;;;2.63;58.50
6528;BME280;64597;42.664;23.256;2023-02-03T06:26:14;95074.56;;;2.50;58.19
6528;BME280;64597;42.664;23.256;2023-02-03T06:28:39;95090.59;;;2.62;58.48
6528;BME280;64597;42.664;23.256;2023-02-03T06:31:05;95083.53;;;2.93;58.01
6528;BME280;64597;42.664;23.256;2023-02-03T06:33:33;95084.69;;;3.27;56.99
6528;BME280;64597;42.664;23.256;2023-02-03T06:35:59;95086.19;;;3.59;55.34
6528;BME280;64597;42.664;23.256;2023-02-03T06:38:24;95082.28;;;4.13;54.79
6528;BME280;64597;42.664;23.256;2023-02-03T06:40:50;95085.03;;;4.56;52.79
6528;BME280;64597;42.664;23.256;2023-02-03T06:43:16;95080.81;;;4.76;51.17
6528;BME280;64597;42.664;23.256;2023-02-03T06:45:44;95083.47;;;5.25;50.48
6528;BME280;64597;42.664;23.256;2023-02-03T06:48:10;95082.94;;;5.36;49.54
6528;BME280;64597;42.664;23.256;2023-02-03T06:50:35;95093.69;;;5.75;49.46
6528;BME280;64597;42.664;23.256;2023-02-03T06:53:01;95098.88;;;6.37;47.94
6528;BME280;64597;42.664;23.256;2023-02-03T06:55:26;95102.25;;;6.78;45.88
6528;BME280;64597;42.664;23.256;2023-02-03T06:57:51;95096.72;;;7.33;44.59
6528;BME280;64597;42.664;23.256;2023-02-03T07:00:18;95076.13;;;7.43;43.30
6528;BME280;64597;42.664;23.256;2023-02-03T07:02:45;95095.88;;;7.79;44.20
6528;BME280;64597;42.664;23.256;2023-02-03T07:05:10;95068.19;;;7.96;42.75
6528;BME280;64597;42.664;23.256;2023-02-03T07:07:36;95089.09;;;8.42;40.87
6528;BME280;64597;42.664;23.256;2023-02-03T07:10:04;95091.38;;;8.69;40.84
6528;BME280;64597;42.664;23.256;2023-02-03T07:12:30;95095.22;;;9.11;41.25
6528;BME280;64597;42.664;23.256;2023-02-03T07:14:56;95091.19;;;9.40;38.63
6528;BME280;64597;42.664;23.256;2023-02-03T07:17:21;95095.00;;;9.44;39.76
6528;BME280;64597;42.664;23.256;2023-02-03T07:19:46;95089.25;;;9.78;38.53
6528;BME280;64597;42.664;23.256;2023-02-03T07:22:12;95057.06;;;9.76;66.54
6528;BME280;64597;42.664;23.256;2023-02-03T07:24:37;95078.06;;;12.83;76.26
6528;BME280;64597;42.664;23.256;2023-02-03T07:27:03;95073.84;;;15.29;56.18
6528;BME280;64597;42.664;23.256;2023-02-03T07:29:28;95061.97;;;16.89;47.04
6528;BME280;64597;42.664;23.256;2023-02-03T07:31:54;95068.91;;;16.38;30.65
6528;BME280;64597;42.664;23.256;2023-02-03T07:34:20;95072.34;;;15.38;29.12
6528;BME280;64597;42.664;23.256;2023-02-03T07:36:45;95085.25;;;14.60;29.75
6528;BME280;64597;42.664;23.256;2023-02-03T07:39:11;95083.34;;;13.84;29.86
6528;BME280;64597;42.664;23.256;2023-02-03T07:41:36;95093.97;;;13.39;31.14
6528;BME280;64597;42.664;23.256;2023-02-03T07:44:02;95097.38;;;13.35;31.36
6528;BME280;64597;42.664;23.256;2023-02-03T07:46:27;95104.59;;;13.56;31.91
6528;BME280;64597;42.664;23.256;2023-02-03T07:48:53;95088.69;;;13.11;30.65
6528;BME280;64597;42.664;23.256;2023-02-03T07:51:18;95105.78;;;12.92;31.25
6528;BME280;64597;42.664;23.256;2023-02-03T07:53:44;95096.66;;;12.99;31.99
6528;BME280;64597;42.664;23.256;2023-02-03T07:56:10;95100.91;;;13.12;31.81
6528;BME280;64597;42.664;23.256;2023-02-03T07:58:36;95096.34;;;13.52;32.27
6528;BME280;64597;42.664;23.256;2023-02-03T08:01:12;95061.81;;;13.31;31.14
6528;BME280;64597;42.664;23.256;2023-02-03T08:03:38;95111.38;;;13.63;31.08
6528;BME280;64597;42.664;23.256;2023-02-03T08:06:03;95107.59;;;13.92;31.17
6528;BME280;64597;42.664;23.256;2023-02-03T08:08:30;95091.53;;;13.82;30.97
6528;BME280;64597;42.664;23.256;2023-02-03T08:10:55;95047.78;;;13.47;30.28
6528;BME280;64597;42.664;23.256;2023-02-03T08:13:21;95109.44;;;13.59;30.69
6528;BME280;64597;42.664;23.256;2023-02-03T08:15:46;95088.09;;;13.20;30.78
6528;BME280;64597;42.664;23.256;2023-02-03T08:18:12;95017.84;;;12.33;32.00
6528;BME280;64597;42.664;23.256;2023-02-03T08:20:37;95087.47;;;12.51;31.99
6528;BME280;64597;42.664;23.256;2023-02-03T08:23:03;95101.72;;;12.50;31.76
6528;BME280;64597;42.664;23.256;2023-02-03T08:25:28;95105.88;;;12.46;32.40
6528;BME280;64597;42.664;23.256;2023-02-03T08:27:54;95111.66;;;12.19;32.92
6528;BME280;64597;42.664;23.256;2023-02-03T08:30:20;95105.88;;;12.46;32.82
6528;BME280;64597;42.664;23.256;2023-02-03T08:32:46;95098.19;;;12.44;32.44
6528;BME280;64597;42.664;23.256;2023-02-03T08:35:11;95083.84;;;11.94;32.01
6528;BME280;64597;42.664;23.256;2023-02-03T08:37:37;95114.28;;;12.43;32.53
6528;BME280;64597;42.664;23.256;2023-02-03T08:40:04;95116.44;;;12.69;31.61
6528;BME280;64597;42.664;23.256;2023-02-03T08:42:29;95124.97;;;12.48;32.52
6528;BME280;64597;42.664;23.256;2023-02-03T08:44:55;95119.91;;;11.88;32.36
6528;BME280;64597;42.664;23.256;2023-02-03T08:47:20;95128.22;;;11.21;33.64
6528;BME280;64597;42.664;23.256;2023-02-03T08:49:49;95149.25;;;10.98;34.98
6528;BME280;64597;42.664;23.256;2023-02-03T08:52:14;95152.31;;;10.76;35.24
6528;BME280;64597;42.664;23.256;2023-02-03T08:54:40;95106.41;;;10.30;35.05
6528;BME280;64597;42.664;23.256;2023-02-03T08:57:06;95161.59;;;10.43;36.23
6528;BME280;64597;42.664;23.256;2023-02-03T08:59:32;95165.97;;;10.31;36.62
6528;BME280;64597;42.664;23.256;2023-02-03T09:02:04;95160.03;;;10.17;36.87
6528;BME280;64597;42.664;23.256;2023-02-03T09:04:30;95167.00;;;10.05;37.52
6528;BME280;64597;42.664;23.256;2023-02-03T09:06:58;95166.88;;;9.93;37.36
6528;BME280;64597;42.664;23.256;2023-02-03T09:09:24;95165.53;;;9.60;37.48
6528;BME280;64597;42.664;23.256;2023-02-03T09:11:51;95161.47;;;9.64;37.87
6528;BME280;64597;42.664;23.256;2023-02-03T09:14:16;95156.16;;;9.70;38.92
6528;BME280;64597;42.664;23.256;2023-02-03T09:16:42;95151.03;;;9.75;38.94
6528;BME280;64597;42.664;23.256;2023-02-03T09:19:07;95138.84;;;10.06;36.83
6528;BME280;64597;42.664;23.256;2023-02-03T09:21:33;95139.19;;;10.16;38.13
6528;BME280;64597;42.664;23.256;2023-02-03T09:24:02;95144.56;;;10.45;35.98
6528;BME280;64597;42.664;23.256;2023-02-03T09:26:28;95140.31;;;10.44;36.61
6528;BME280;64597;42.664;23.256;2023-02-03T09:28:54;95142.94;;;10.62;36.84
6528;BME280;64597;42.664;23.256;2023-02-03T09:31:19;95143.78;;;11.11;35.65
6528;BME280;64597;42.664;23.256;2023-02-03T09:33:45;95126.06;;;11.29;35.38
6528;BME280;64597;42.664;23.256;2023-02-03T09:36:11;95140.13;;;11.71;35.08
6528;BME280;64597;42.664;23.256;2023-02-03T09:38:37;95116.56;;;11.28;34.96
6528;BME280;64597;42.664;23.256;2023-02-03T09:41:39;95136.91;;;11.10;35.58
6528;BME280;64597;42.664;23.256;2023-02-03T09:47:01;95132.06;;;11.07;34.83
6528;BME280;64597;42.664;23.256;2023-02-03T09:49:42;95136.06;;;11.39;35.13
6528;BME280;64597;42.664;23.256;2023-02-03T09:54:51;95143.28;;;11.32;35.13
6528;BME280;64597;42.664;23.256;2023-02-03T09:57:30;95131.94;;;11.43;35.43
6528;BME280;64597;42.664;23.256;2023-02-03T09:59:58;95119.75;;;11.01;35.32
6528;BME280;64597;42.664;23.256;2023-02-03T10:05:17;95132.59;;;11.27;35.24
6528;BME280;64597;42.664;23.256;2023-02-03T10:07:55;95121.59;;;11.00;34.10
6528;BME280;64597;42.664;23.256;2023-02-03T10:18:40;95095.63;;;10.31;35.85
6528;BME280;64597;42.664;23.256;2023-02-03T10:21:20;95115.38;;;10.22;36.51
6528;BME280;64597;42.664;23.256;2023-02-03T10:23:51;95117.16;;;10.28;36.80
6528;BME280;64597;42.664;23.256;2023-02-03T10:26:23;95126.75;;;9.98;37.72
6528;BME280;64597;42.664;23.256;2023-02-03T10:28:55;95115.03;;;9.94;38.13
6528;BME280;64597;42.664;23.256;2023-02-03T10:31:24;95104.00;;;10.04;36.71
6528;BME280;64597;42.664;23.256;2023-02-03T10:34:00;95107.22;;;10.06;37.23
6528;BME280;64597;42.664;23.256;2023-02-03T10:36:52;95085.97;;;10.25;36.59
6528;BME280;64597;42.664;23.256;2023-02-03T10:39:31;95094.16;;;10.17;35.58
6528;BME280;64597;42.664;23.256;2023-02-03T10:41:59;95074.56;;;10.13;36.50
6528;BME280;64597;42.664;23.256;2023-02-03T10:44:31;95082.41;;;9.95;35.32
6528;BME280;64597;42.664;23.256;2023-02-03T10:46:59;95073.31;;;9.73;35.99
6528;BME280;64597;42.664;23.256;2023-02-03T10:49:27;95079.53;;;9.54;36.48
6528;BME280;64597;42.664;23.256;2023-02-03T10:51:57;95087.63;;;9.28;35.78
6528;BME280;64597;42.664;23.256;2023-02-03T10:54:35;95096.66;;;9.07;36.18
6528;BME280;64597;42.664;23.256;2023-02-03T10:57:13;95105.22;;;8.96;36.19
6528;BME280;64597;42.664;23.256;2023-02-03T10:59:45;95109.06;;;8.93;35.99
6528;BME280;64597;42.664;23.256;2023-02-03T11:02:43;95098.78;;;8.85;34.00
6528;BME280;64597;42.664;23.256;2023-02-03T11:07:41;95092.84;;;8.59;33.81
6528;BME280;64597;42.664;23.256;2023-02-03T11:13:17;95094.34;;;8.48;34.73
6528;BME280;64597;42.664;23.256;2023-02-03T11:16:00;95079.41;;;8.42;35.52
6528;BME280;64597;42.664;23.256;2023-02-03T11:18:43;95092.53;;;8.42;36.58
6528;BME280;64597;42.664;23.256;2023-02-03T11:21:17;95076.63;;;8.11;37.96
6528;BME280;64597;42.664;23.256;2023-02-03T11:26:45;95078.00;;;8.33;37.70
6528;BME280;64597;42.664;23.256;2023-02-03T11:29:26;95082.22;;;8.41;37.41
6528;BME280;64597;42.664;23.256;2023-02-03T11:31:55;95050.94;;;8.26;37.51
6528;BME280;64597;42.664;23.256;2023-02-03T11:34:33;95063.88;;;8.21;36.56
6528;BME280;64597;42.664;23.256;2023-02-03T11:42:37;95056.59;;;8.16;36.63
6528;BME280;64597;42.664;23.256;2023-02-03T11:45:37;95063.88;;;8.14;37.25
6528;BME280;64597;42.664;23.256;2023-02-03T11:48:17;95048.53;;;8.18;37.23
6528;BME280;64597;42.664;23.256;2023-02-03T11:56:16;95057.34;;;7.73;36.90
6528;BME280;64597;42.664;23.256;2023-02-03T12:05:00;95047.44;;;7.68;35.88
6528;BME280;64597;42.664;23.256;2023-02-03T12:10:21;95044.53;;;8.02;35.86
6528;BME280;64597;42.664;23.256;2023-02-03T12:29:31;95051.53;;;7.31;35.75
6528;BME280;64597;42.664;23.256;2023-02-03T12:34:37;95032.72;;;7.28;35.74
6528;BME280;64597;42.664;23.256;2023-02-03T12:37:26;95035.38;;;7.34;36.23
6528;BME280;64597;42.664;23.256;2023-02-03T12:39:58;95046.47;;;7.36;36.46
6528;BME280;64597;42.664;23.256;2023-02-03T12:42:39;95031.75;;;7.35;36.72
6528;BME280;64597;42.664;23.256;2023-02-03T12:47:43;95037.00;;;7.35;36.85
6528;BME280;64597;42.664;23.256;2023-02-03T12:50:19;95037.81;;;7.29;36.15
6528;BME280;64597;42.664;23.256;2023-02-03T12:52:56;95051.72;;;7.17;36.83
6528;BME280;64597;42.664;23.256;2023-02-03T12:55:33;95053.94;;;7.07;36.89
6528;BME280;64597;42.664;23.256;2023-02-03T12:58:06;95039.41;;;7.04;36.54
6528;BME280;64597;42.664;23.256;2023-02-03T13:00:39;95038.59;;;7.04;36.82
6528;BME280;64597;42.664;23.256;2023-02-03T13:17:19;94986.16;;;6.84;38.85
6528;BME280;64597;42.664;23.256;2023-02-03T13:19:54;95004.31;;;6.99;39.20
6528;BME280;64597;42.664;23.256;2023-02-03T13:22:22;95026.19;;;7.89;76.59
6528;BME280;64597;42.664;23.256;2023-02-03T13:33:26;95006.66;;;7.72;40.88
6528;BME280;64597;42.664;23.256;2023-02-03T13:43:57;95023.47;;;7.19;39.66
6528;BME280;64597;42.664;23.256;2023-02-03T13:46:26;95018.66;;;7.09;39.95
6528;BME280;64597;42.664;23.256;2023-02-03T13:48:56;95020.44;;;7.02;40.16
6528;BME280;64597;42.664;23.256;2023-02-03T13:51:29;95020.81;;;6.99;40.63
6528;BME280;64597;42.664;23.256;2023-02-03T13:54:24;95029.69;;;6.92;40.97
6528;BME280;64597;42.664;23.256;2023-02-03T13:57:19;95015.19;;;6.76;41.53
6528;BME280;64597;42.664;23.256;2023-02-03T13:59:45;95000.66;;;6.67;41.44
6528;BME280;64597;42.664;23.256;2023-02-03T14:07:34;95027.88;;;6.66;41.66
6528;BME280;64597;42.664;23.256;2023-02-03T14:12:58;95014.91;;;6.45;41.48
6528;BME280;64597;42.664;23.256;2023-02-03T14:23:04;95007.16;;;6.11;42.00
6528;BME280;64597;42.664;23.256;2023-02-03T14:25:32;95009.59;;;6.19;42.22
6528;BME280;64597;42.664;23.256;2023-02-03T14:28:09;95004.09;;;6.07;41.73
6528;BME280;64597;42.664;23.256;2023-02-03T14:31:01;95009.56;;;6.12;41.69
6528;BME280;64597;42.664;23.256;2023-02-03T14:47:06;95010.00;;;5.81;42.32
6528;BME280;64597;42.664;23.256;2023-02-03T14:49:46;95017.78;;;5.68;41.77
6528;BME280;64597;42.664;23.256;2023-02-03T14:57:52;95003.88;;;5.61;42.81
6528;BME280;64597;42.664;23.256;2023-02-03T15:05:37;94984.59;;;5.69;42.25
6528;BME280;64597;42.664;23.256;2023-02-03T15:08:03;94977.50;;;5.63;42.09
6528;BME280;64597;42.664;23.256;2023-02-03T15:10:49;94978.91;;;5.59;41.88
6528;BME280;64597;42.664;23.256;2023-02-03T15:13:28;94957.50;;;5.42;41.49
6528;BME280;64597;42.664;23.256;2023-02-03T15:16:03;94962.72;;;5.42;40.68
6528;BME280;64597;42.664;23.256;2023-02-03T15:18:33;94965.13;;;5.37;40.87
6528;BME280;64597;42.664;23.256;2023-02-03T15:21:00;94885.09;;;4.74;40.48
6528;BME280;64597;42.664;23.256;2023-02-03T15:23:29;94940.47;;;5.19;40.40
6528;BME280;64597;42.664;23.256;2023-02-03T15:26:00;94945.28;;;5.15;40.49
6528;BME280;64597;42.664;23.256;2023-02-03T15:28:28;94938.19;;;5.09;40.52
6528;BME280;64597;42.664;23.256;2023-02-03T15:31:01;94938.34;;;5.01;41.06
6528;BME280;64597;42.664;23.256;2023-02-03T15:33:30;94945.56;;;4.99;41.52
6528;BME280;64597;42.664;23.256;2023-02-03T15:36:02;94889.22;;;4.56;41.66
6528;BME280;64597;42.664;23.256;2023-02-03T15:38:35;94935.25;;;4.91;41.88
6528;BME280;64597;42.664;23.256;2023-02-03T15:41:02;94934.28;;;4.92;42.06
6528;BME280;64597;42.664;23.256;2023-02-03T15:43:35;94929.81;;;4.86;42.10
6528;BME280;64597;42.664;23.256;2023-02-03T15:46:12;94927.34;;;4.78;43.20
6528;BME280;64597;42.664;23.256;2023-02-03T15:51:25;94934.91;;;4.73;42.79
6528;BME280;64597;42.664;23.256;2023-02-03T15:56:46;94901.72;;;4.39;42.19
6528;BME280;64597;42.664;23.256;2023-02-03T16:01:53;94910.47;;;4.53;43.00
6528;BME280;64597;42.664;23.256;2023-02-03T16:04:20;94910.19;;;4.48;42.81
6528;BME280;64597;42.664;23.256;2023-02-03T16:06:51;94908.59;;;4.47;42.92
6528;BME280;64597;42.664;23.256;2023-02-03T16:09:54;94914.81;;;4.46;43.28